Time;durP1;ratioP1;P1;durP2;ratioP2;P2;SDS_P1;SDS_P2;PMS_P1;PMS_P2;Temp;Humidity;BMP_temperature;BMP_pressure;BME280_temperature;BME280_humidity;BME280_pressure;Samples;Min_cycle;Max_cycle;Signal;HPM_P1;HPM_P2
2023/07/20 00:02:23;;;;;;;7.57;4.40;;;17.60;99.90;;;;;;5124864;28;20034;-73
2023/07/20 00:04:49;;;;;;;9.40;4.40;;;17.60;99.90;;;;;;5126550;28;20023;-72
2023/07/20 00:07:15;;;;;;;7.00;4.70;;;17.60;99.90;;;;;;5132478;28;20544;-72
2023/07/20 00:09:40;;;;;;;7.53;4.47;;;17.60;99.90;;;;;;5123936;28;20038;-71
2023/07/20 00:12:06;;;;;;;9.32;4.30;;;17.60;99.90;;;;;;5127864;28;20464;-72
2023/07/20 00:14:32;;;;;;;10.40;4.75;;;17.60;99.90;;;;;;5121660;28;20048;-71
2023/07/20 00:16:58;;;;;;;7.55;5.20;;;17.50;99.90;;;;;;5129044;28;20027;-72
2023/07/20 00:19:27;;;;;;;8.80;4.78;;;17.50;99.90;;;;;;5132583;28;20016;-72
2023/07/20 00:21:54;;;;;;;11.73;5.53;;;17.50;99.90;;;;;;5129263;28;20404;-72
2023/07/20 00:24:20;;;;;;;9.20;4.45;;;17.50;99.90;;;;;;5129391;28;20023;-71
2023/07/20 00:26:46;;;;;;;7.60;4.47;;;17.50;99.90;;;;;;5132482;28;20034;-71
2023/07/20 00:29:12;;;;;;;7.10;3.88;;;17.50;99.90;;;;;;5132144;28;20023;-71
2023/07/20 00:31:38;;;;;;;6.43;4.05;;;17.50;99.90;;;;;;5119996;27;20116;-71
2023/07/20 00:34:04;;;;;;;6.10;3.40;;;17.50;99.90;;;;;;5129035;27;20597;-72
2023/07/20 00:36:30;;;;;;;7.80;3.05;;;17.40;99.90;;;;;;5123044;27;20135;-71
2023/07/20 00:38:56;;;;;;;6.63;3.28;;;17.40;99.90;;;;;;5136476;27;20048;-72
2023/07/20 00:41:22;;;;;;;4.00;2.78;;;17.30;99.90;;;;;;5136180;27;20012;-71
2023/07/20 00:43:47;;;;;;;4.95;2.78;;;17.20;99.90;;;;;;5136314;27;20015;-72
2023/07/20 00:46:14;;;;;;;3.00;2.53;;;17.10;99.90;;;;;;5136255;27;20027;-72
2023/07/20 00:48:41;;;;;;;5.30;2.78;;;17.10;99.90;;;;;;5135309;27;20031;-71
2023/07/20 00:51:07;;;;;;;4.20;2.30;;;17.10;99.90;;;;;;5128714;27;20050;-72
2023/07/20 00:53:33;;;;;;;5.68;2.60;;;17.10;99.90;;;;;;5124726;27;20544;-71
2023/07/20 00:55:58;;;;;;;4.57;2.90;;;17.10;99.90;;;;;;5126678;27;20023;-71
2023/07/20 00:58:24;;;;;;;6.30;3.60;;;17.10;99.90;;;;;;5135763;27;20712;-72
2023/07/20 01:00:50;;;;;;;7.60;3.20;;;17.10;99.90;;;;;;5136040;27;20023;-71
2023/07/20 01:03:16;;;;;;;8.43;4.03;;;17.10;99.90;;;;;;5135731;27;20019;-72
2023/07/20 01:06:20;;;;;;;5.68;3.60;;;17.10;99.90;;;;;;5135817;27;20080;-72
2023/07/20 01:08:57;;;;;;;7.13;3.58;;;17.10;99.90;;;;;;5082790;27;20031;-71
2023/07/20 01:11:38;;;;;;;6.82;3.80;;;17.10;99.90;;;;;;5125159;27;20092;-72
2023/07/20 01:14:05;;;;;;;5.88;3.70;;;17.20;99.90;;;;;;5135684;27;20064;-71
2023/07/20 01:16:30;;;;;;;3.80;2.92;;;17.20;99.90;;;;;;5132096;27;20044;-72
2023/07/20 01:18:56;;;;;;;5.10;2.90;;;17.10;99.90;;;;;;5135435;27;20077;-71
2023/07/20 01:21:45;;;;;;;5.07;2.80;;;17.10;99.90;;;;;;5135655;27;20068;-72
2023/07/20 01:24:22;;;;;;;3.95;2.33;;;17.10;99.90;;;;;;5123768;27;20062;-72
2023/07/20 01:27:25;;;;;;;4.35;2.00;;;17.10;99.90;;;;;;5130029;27;20036;-72
2023/07/20 01:29:54;;;;;;;2.70;1.30;;;17.10;99.90;;;;;;5123720;27;20114;-71
2023/07/20 01:32:23;;;;;;;3.63;1.65;;;17.00;99.90;;;;;;5118352;27;20026;-71
2023/07/20 01:34:51;;;;;;;2.22;1.30;;;17.00;99.90;;;;;;5128444;27;20057;-72
2023/07/20 01:37:20;;;;;;;2.95;1.40;;;16.90;99.90;;;;;;5115775;27;20027;-72
2023/07/20 01:39:46;;;;;;;4.00;1.48;;;16.90;99.90;;;;;;5124213;27;20509;-71
2023/07/20 01:42:12;;;;;;;2.38;1.30;;;16.90;99.90;;;;;;5126223;27;20023;-72
2023/07/20 01:44:38;;;;;;;2.00;1.20;;;16.80;99.90;;;;;;5115726;27;20019;-72
2023/07/20 01:47:04;;;;;;;4.13;1.30;;;16.80;99.90;;;;;;5134163;27;20106;-72
2023/07/20 01:49:30;;;;;;;1.35;1.25;;;16.80;99.90;;;;;;5134808;27;20144;-72
2023/07/20 01:51:55;;;;;;;2.15;1.50;;;16.80;99.90;;;;;;5134920;27;20035;-72
2023/07/20 01:54:21;;;;;;;2.03;1.10;;;16.80;99.90;;;;;;5123147;27;20528;-72
2023/07/20 01:56:47;;;;;;;1.60;1.15;;;16.80;99.90;;;;;;5128249;27;20022;-72
2023/07/20 01:59:12;;;;;;;5.25;1.52;;;16.80;99.90;;;;;;5131485;27;20023;-72
2023/07/20 02:01:38;;;;;;;2.63;1.30;;;16.80;99.90;;;;;;5134509;27;20027;-72
2023/07/20 02:04:03;;;;;;;1.52;1.10;;;16.80;99.90;;;;;;5134713;27;20015;-72
2023/07/20 02:06:30;;;;;;;1.27;1.17;;;16.80;99.90;;;;;;5134386;27;20051;-72
2023/07/20 02:08:55;;;;;;;3.13;1.20;;;16.90;99.90;;;;;;5119111;27;20235;-72
2023/07/20 02:11:21;;;;;;;1.30;1.10;;;16.80;99.90;;;;;;5115322;27;20008;-72
2023/07/20 02:13:46;;;;;;;1.50;1.10;;;16.90;99.90;;;;;;5130148;27;20098;-73
2023/07/20 02:16:12;;;;;;;1.75;1.10;;;16.80;99.90;;;;;;5134521;27;20051;-72
2023/07/20 02:18:38;;;;;;;1.23;1.13;;;16.80;99.90;;;;;;5120583;27;20464;-72
2023/07/20 02:21:03;;;;;;;2.25;1.27;;;16.80;99.90;;;;;;5107428;27;20539;-72
2023/07/20 02:23:29;;;;;;;1.88;1.00;;;16.80;99.90;;;;;;5131481;27;20026;-72
2023/07/20 02:25:54;;;;;;;2.30;1.10;;;16.80;99.90;;;;;;5129437;27;20023;-72
2023/07/20 02:28:20;;;;;;;2.92;1.00;;;16.70;99.90;;;;;;5133978;27;20042;-72
2023/07/20 02:30:46;;;;;;;2.17;1.00;;;16.60;99.90;;;;;;5134028;27;20016;-71
2023/07/20 02:33:11;;;;;;;3.67;1.10;;;16.60;99.90;;;;;;5133810;27;20011;-71
2023/07/20 02:35:37;;;;;;;1.27;1.17;;;16.60;99.90;;;;;;5133835;27;20357;-71
2023/07/20 02:38:03;;;;;;;1.45;1.10;;;16.70;99.90;;;;;;5133339;27;20020;-70
2023/07/20 02:40:29;;;;;;;1.75;1.05;;;16.70;99.90;;;;;;5116008;27;20020;-71
2023/07/20 02:42:54;;;;;;;1.73;1.05;;;16.70;99.90;;;;;;5110446;27;20506;-71
2023/07/20 02:45:20;;;;;;;2.92;1.40;;;16.70;99.90;;;;;;5123185;27;20051;-71
2023/07/20 02:47:46;;;;;;;2.25;1.20;;;16.60;99.90;;;;;;5132647;27;20128;-71
2023/07/20 02:50:13;;;;;;;3.67;1.23;;;16.70;99.90;;;;;;5133557;27;20035;-70
2023/07/20 02:52:39;;;;;;;3.42;1.13;;;16.60;99.90;;;;;;5119691;27;20036;-71
2023/07/20 02:55:05;;;;;;;1.60;1.20;;;16.60;99.90;;;;;;5130977;27;20037;-71
2023/07/20 02:57:31;;;;;;;1.45;1.13;;;16.50;99.90;;;;;;5120357;27;20019;-71
2023/07/20 02:59:56;;;;;;;4.28;1.27;;;16.50;99.90;;;;;;5133314;27;20019;-71
2023/07/20 03:02:22;;;;;;;2.72;1.38;;;16.50;99.90;;;;;;5132857;27;20019;-71
2023/07/20 03:04:48;;;;;;;2.72;1.40;;;16.50;99.90;;;;;;5132969;27;20027;-71
2023/07/20 03:07:13;;;;;;;1.65;1.55;;;16.40;99.90;;;;;;5132903;27;20095;-71
2023/07/20 03:09:39;;;;;;;4.20;1.48;;;16.40;99.90;;;;;;5133115;27;20457;-71
2023/07/20 03:12:05;;;;;;;2.28;1.65;;;16.40;99.90;;;;;;5130097;27;20024;-71
2023/07/20 03:14:31;;;;;;;2.33;1.60;;;16.40;99.90;;;;;;5125483;27;20023;-71
2023/07/20 03:16:56;;;;;;;2.88;1.60;;;16.40;99.90;;;;;;5126146;27;20018;-70
2023/07/20 03:19:22;;;;;;;4.00;1.60;;;16.30;99.90;;;;;;5122575;27;20102;-71
2023/07/20 03:21:48;;;;;;;4.20;1.63;;;16.30;99.90;;;;;;5133037;27;20107;-71
2023/07/20 03:24:14;;;;;;;2.58;1.73;;;16.30;99.90;;;;;;5114630;27;20015;-71
2023/07/20 03:26:39;;;;;;;5.15;1.77;;;16.20;99.90;;;;;;5133026;27;20106;-71
2023/07/20 03:29:06;;;;;;;2.75;1.77;;;16.20;99.90;;;;;;5132965;27;20019;-71
2023/07/20 03:31:32;;;;;;;3.20;1.50;;;16.20;99.90;;;;;;5122980;27;20023;-71
2023/07/20 03:33:58;;;;;;;2.10;1.75;;;16.10;99.90;;;;;;5128020;27;20068;-71
2023/07/20 03:36:23;;;;;;;4.75;1.88;;;16.20;99.90;;;;;;5106637;27;20212;-71
2023/07/20 03:38:50;;;;;;;4.10;1.80;;;16.20;99.90;;;;;;5121368;27;20043;-71
2023/07/20 03:41:16;;;;;;;4.80;1.50;;;16.20;99.90;;;;;;5128972;27;20011;-72
2023/07/20 03:43:42;;;;;;;4.93;1.90;;;16.20;99.90;;;;;;5123392;27;20019;-71
2023/07/20 03:46:07;;;;;;;2.05;1.85;;;16.20;99.90;;;;;;5129674;27;20019;-70
2023/07/20 03:48:33;;;;;;;6.15;1.95;;;16.30;99.90;;;;;;5126463;27;20027;-72
2023/07/20 03:51:02;;;;;;;2.75;2.00;;;16.30;99.90;;;;;;5132574;27;20047;-72
2023/07/20 03:53:28;;;;;;;4.45;1.70;;;16.20;99.90;;;;;;5123174;27;20015;-72
2023/07/20 03:55:54;;;;;;;4.82;2.00;;;16.20;99.90;;;;;;5122250;28;20034;-72
2023/07/20 03:58:21;;;;;;;4.40;1.98;;;16.30;99.90;;;;;;5110328;28;20103;-72
2023/07/20 04:00:51;;;;;;;5.97;2.33;;;16.30;99.90;;;;;;5112312;28;20019;-73
2023/07/20 04:03:18;;;;;;;3.95;2.00;;;16.30;99.90;;;;;;5132266;28;20126;-72
2023/07/20 04:05:44;;;;;;;3.47;2.40;;;16.30;99.90;;;;;;5110918;27;20041;-72
2023/07/20 04:08:11;;;;;;;4.10;2.25;;;16.30;99.90;;;;;;5118583;27;20020;-72
2023/07/20 04:10:36;;;;;;;2.83;2.30;;;16.30;99.90;;;;;;5130429;27;20021;-72
2023/07/20 04:13:02;;;;;;;4.70;2.70;;;16.30;99.90;;;;;;5136623;27;20225;-72
2023/07/20 04:15:28;;;;;;;4.03;2.28;;;16.30;99.90;;;;;;5109422;27;20151;-72
2023/07/20 04:17:56;;;;;;;3.13;2.50;;;16.30;99.90;;;;;;5136739;27;20023;-72
2023/07/20 04:20:22;;;;;;;3.95;2.60;;;16.30;99.90;;;;;;5136799;27;20020;-72
2023/07/20 04:22:48;;;;;;;4.03;2.55;;;16.20;99.90;;;;;;5118029;27;20031;-72
2023/07/20 04:25:14;;;;;;;4.30;2.85;;;16.20;99.90;;;;;;5123811;27;20102;-72
2023/07/20 04:27:39;;;;;;;4.45;2.58;;;16.10;99.90;;;;;;5116768;27;20448;-73
2023/07/20 04:30:08;;;;;;;5.57;2.40;;;16.10;99.90;;;;;;5136888;27;20026;-72
2023/07/20 04:32:33;;;;;;;3.25;2.50;;;16.20;99.90;;;;;;5133950;27;20452;-71
2023/07/20 04:34:59;;;;;;;3.10;2.40;;;16.10;99.90;;;;;;5136789;27;20083;-71
2023/07/20 04:37:25;;;;;;;5.47;2.40;;;16.20;99.90;;;;;;5135079;27;20028;-71
2023/07/20 04:39:50;;;;;;;4.18;2.78;;;16.20;99.90;;;;;;5115938;28;20053;-71
2023/07/20 04:42:16;;;;;;;3.97;2.60;;;16.20;99.90;;;;;;5129644;27;20020;-72
2023/07/20 04:44:42;;;;;;;6.53;3.20;;;16.20;99.90;;;;;;5135511;27;20023;-71
2023/07/20 04:47:08;;;;;;;7.72;3.30;;;16.20;99.90;;;;;;5136430;27;20023;-72
2023/07/20 04:49:34;;;;;;;10.52;4.07;;;16.20;99.90;;;;;;5131026;27;20048;-72
2023/07/20 04:52:00;;;;;;;8.00;3.33;;;16.20;99.90;;;;;;5128419;27;20056;-72
2023/07/20 04:54:27;;;;;;;6.35;3.88;;;16.20;99.90;;;;;;5128690;27;20494;-72
2023/07/20 04:56:53;;;;;;;6.85;3.30;;;16.20;99.90;;;;;;5136165;27;20284;-72
2023/07/20 04:59:19;;;;;;;5.50;3.33;;;16.30;99.90;;;;;;5118460;27;20023;-71
2023/07/20 05:01:44;;;;;;;7.10;3.60;;;16.30;99.90;;;;;;5128118;27;20072;-71
2023/07/20 05:04:10;;;;;;;6.47;3.30;;;16.40;99.90;;;;;;5130639;27;20025;-72
2023/07/20 05:06:36;;;;;;;8.52;3.63;;;16.40;99.90;;;;;;5135532;27;20023;-72
2023/07/20 05:09:01;;;;;;;9.15;3.20;;;16.50;99.90;;;;;;5136403;27;20046;-71
2023/07/20 05:11:27;;;;;;;7.80;3.50;;;16.50;99.90;;;;;;5116444;27;20020;-71
2023/07/20 05:13:53;;;;;;;7.25;3.20;;;16.60;99.90;;;;;;5136014;27;20391;-71
2023/07/20 05:16:18;;;;;;;6.47;2.75;;;16.60;99.90;;;;;;5129564;27;20152;-71
2023/07/20 05:18:44;;;;;;;6.95;2.90;;;16.70;99.90;;;;;;5128984;27;20024;-72
2023/07/20 05:21:10;;;;;;;4.40;3.55;;;16.70;99.90;;;;;;5128900;27;20081;-71
2023/07/20 05:23:35;;;;;;;4.78;3.28;;;16.70;99.90;;;;;;5129344;27;20019;-71
2023/07/20 05:26:01;;;;;;;5.55;3.33;;;16.80;99.90;;;;;;5133702;27;20067;-71
2023/07/20 05:28:27;;;;;;;9.00;3.60;;;16.80;99.90;;;;;;5133285;27;20054;-71
2023/07/20 05:30:53;;;;;;;6.55;3.47;;;16.90;99.90;;;;;;5135618;27;20463;-72
2023/07/20 05:33:20;;;;;;;5.10;3.60;;;17.00;99.90;;;;;;5126179;27;20022;-72
2023/07/20 05:35:46;;;;;;;6.78;3.53;;;17.00;99.90;;;;;;5102815;27;20068;-72
2023/07/20 05:38:12;;;;;;;5.57;3.58;;;17.00;99.90;;;;;;5134908;27;20028;-72
2023/07/20 05:40:40;;;;;;;4.65;3.55;;;17.00;99.90;;;;;;5128975;27;20026;-72
2023/07/20 05:43:05;;;;;;;3.90;3.08;;;17.10;99.90;;;;;;5120914;27;20102;-72
2023/07/20 05:45:31;;;;;;;4.07;3.40;;;17.20;99.90;;;;;;5135141;27;20110;-72
2023/07/20 05:47:56;;;;;;;5.47;2.78;;;17.20;99.90;;;;;;5124647;27;20023;-71
2023/07/20 05:50:22;;;;;;;5.35;3.08;;;17.20;99.90;;;;;;5134706;27;20034;-71
2023/07/20 05:52:48;;;;;;;6.82;3.35;;;17.20;99.90;;;;;;5128342;27;20028;-71
2023/07/20 05:55:14;;;;;;;4.07;3.10;;;17.20;99.90;;;;;;5126979;27;20023;-71
2023/07/20 05:57:41;;;;;;;6.32;3.50;;;17.20;99.90;;;;;;5134728;27;20018;-71
2023/07/20 06:00:08;;;;;;;5.22;3.20;;;17.20;99.90;;;;;;5122730;27;20055;-71
2023/07/20 06:02:34;;;;;;;6.25;3.50;;;17.20;99.90;;;;;;5131772;27;20023;-71
2023/07/20 06:05:00;;;;;;;5.22;3.53;;;17.20;99.90;;;;;;5134462;27;20034;-71
2023/07/20 06:07:25;;;;;;;5.70;3.38;;;17.20;99.90;;;;;;5116629;27;20491;-71
2023/07/20 06:09:51;;;;;;;2.88;2.58;;;17.30;99.90;;;;;;5127438;27;20016;-71
2023/07/20 06:12:16;;;;;;;2.90;2.28;;;17.20;99.90;;;;;;5117180;27;20030;-71
2023/07/20 06:14:42;;;;;;;3.63;2.45;;;17.20;99.90;;;;;;5131338;27;20042;-71
2023/07/20 06:17:08;;;;;;;3.88;2.70;;;17.30;99.90;;;;;;5134379;27;20015;-71
2023/07/20 06:19:33;;;;;;;4.00;2.35;;;17.30;99.90;;;;;;5127216;27;20452;-72
2023/07/20 06:21:59;;;;;;;3.20;2.30;;;17.40;99.90;;;;;;5128490;27;20019;-72
2023/07/20 06:24:25;;;;;;;4.10;2.33;;;17.50;99.90;;;;;;5109192;28;20110;-72
2023/07/20 06:26:50;;;;;;;3.47;2.50;;;17.60;99.90;;;;;;5121779;27;20023;-72
2023/07/20 06:29:16;;;;;;;3.75;2.70;;;17.70;99.90;;;;;;5133868;27;20394;-72
2023/07/20 06:31:41;;;;;;;5.25;2.67;;;17.70;99.90;;;;;;5134011;27;20031;-72
2023/07/20 06:34:07;;;;;;;6.30;3.00;;;17.80;99.90;;;;;;5118568;27;20510;-73
2023/07/20 06:36:33;;;;;;;4.55;3.13;;;17.90;99.90;;;;;;5132850;27;20054;-73
2023/07/20 06:38:58;;;;;;;4.95;3.22;;;17.90;99.90;;;;;;5131598;27;20019;-74
2023/07/20 06:41:24;;;;;;;5.95;3.90;;;18.00;99.90;;;;;;5134129;27;20027;-74
2023/07/20 06:43:50;;;;;;;7.07;3.28;;;18.10;99.90;;;;;;5135030;27;20029;-74
2023/07/20 06:46:15;;;;;;;2.42;1.52;;;18.10;99.90;;;;;;5121747;27;20019;-73
2023/07/20 06:48:41;;;;;;;2.05;1.52;;;18.10;99.90;;;;;;5134931;27;20027;-73
2023/07/20 06:51:07;;;;;;;4.15;1.40;;;18.10;99.90;;;;;;5132733;27;20046;-75
2023/07/20 06:53:32;;;;;;;5.22;1.63;;;18.10;99.90;;;;;;5131181;27;20071;-76
2023/07/20 06:55:58;;;;;;;5.55;2.08;;;18.10;99.90;;;;;;5108432;28;20031;-78
2023/07/20 06:58:24;;;;;;;2.03;1.60;;;18.10;99.90;;;;;;5133040;27;20019;-77
2023/07/20 07:00:50;;;;;;;2.55;1.50;;;18.10;99.90;;;;;;5136698;27;20025;-75
2023/07/20 07:03:16;;;;;;;2.60;1.45;;;18.20;99.90;;;;;;5130776;27;20011;-75
2023/07/20 07:05:42;;;;;;;3.65;1.75;;;18.20;99.90;;;;;;5133908;27;20024;-75
2023/07/20 07:08:08;;;;;;;2.90;1.55;;;18.30;99.90;;;;;;5132288;27;21180;-75
2023/07/20 07:10:35;;;;;;;2.80;1.58;;;18.30;99.90;;;;;;5132207;27;20079;-75
2023/07/20 07:13:02;;;;;;;2.47;1.60;;;18.30;99.90;;;;;;5125727;27;20015;-75
2023/07/20 07:15:27;;;;;;;2.95;1.60;;;18.30;99.90;;;;;;5132054;27;20027;-75
2023/07/20 07:17:53;;;;;;;4.78;1.40;;;18.40;99.90;;;;;;5133522;27;20608;-75
2023/07/20 07:20:19;;;;;;;3.38;1.52;;;18.50;99.90;;;;;;5131322;27;20027;-75
2023/07/20 07:22:45;;;;;;;2.90;1.20;;;18.60;99.90;;;;;;5132516;27;20058;-75
2023/07/20 07:25:11;;;;;;;4.47;1.42;;;18.70;99.90;;;;;;5129894;27;20027;-75
2023/07/20 07:27:37;;;;;;;2.72;1.30;;;18.80;99.90;;;;;;5122511;27;20038;-75
2023/07/20 07:30:06;;;;;;;2.00;1.50;;;18.90;99.90;;;;;;5132864;27;20435;-75
2023/07/20 07:32:31;;;;;;;1.88;1.30;;;19.10;99.90;;;;;;5132226;27;20380;-75
2023/07/20 07:35:00;;;;;;;3.55;1.30;;;19.30;99.90;;;;;;5132719;27;20015;-74
2023/07/20 07:37:26;;;;;;;2.83;1.25;;;19.40;99.90;;;;;;5131164;27;20135;-74
2023/07/20 07:39:51;;;;;;;2.10;1.30;;;19.60;99.90;;;;;;5125037;27;20058;-74
2023/07/20 07:42:18;;;;;;;4.35;1.20;;;19.70;99.90;;;;;;5132202;28;20071;-74
2023/07/20 07:44:44;;;;;;;3.10;1.42;;;19.80;99.90;;;;;;5133167;27;20345;-73
2023/07/20 07:47:10;;;;;;;2.30;1.05;;;19.90;99.90;;;;;;5123490;27;20043;-74
2023/07/20 07:49:36;;;;;;;4.93;1.10;;;20.10;99.90;;;;;;5133851;27;20026;-74
2023/07/20 07:52:04;;;;;;;2.80;1.25;;;20.30;99.90;;;;;;5130124;27;20168;-74
2023/07/20 07:54:30;;;;;;;2.25;1.10;;;20.40;99.90;;;;;;5130935;27;20023;-74
2023/07/20 07:56:56;;;;;;;1.80;1.05;;;20.60;99.90;;;;;;5124060;28;20045;-74
2023/07/20 07:59:21;;;;;;;2.33;1.00;;;20.80;99.90;;;;;;5131628;28;20023;-75
2023/07/20 08:01:47;;;;;;;4.78;0.90;;;20.80;99.90;;;;;;5131563;28;20034;-74
2023/07/20 08:04:13;;;;;;;2.30;0.95;;;20.80;99.90;;;;;;5117762;28;20015;-74
2023/07/20 08:06:39;;;;;;;3.63;1.05;;;20.60;99.90;;;;;;5133679;28;20072;-74
2023/07/20 08:09:05;;;;;;;0.88;0.80;;;20.30;99.90;;;;;;5132519;28;20091;-75
2023/07/20 08:11:33;;;;;;;1.98;0.90;;;20.00;99.90;;;;;;5131678;28;20102;-75
2023/07/20 08:13:59;;;;;;;2.55;1.00;;;19.80;99.90;;;;;;5132547;28;20467;-75
2023/07/20 08:16:25;;;;;;;2.13;0.90;;;19.50;99.90;;;;;;5129076;28;20098;-75
2023/07/20 08:18:51;;;;;;;1.60;1.02;;;19.40;99.90;;;;;;5118346;28;20050;-75
2023/07/20 08:21:17;;;;;;;1.40;0.95;;;19.30;99.90;;;;;;5132111;28;20019;-76
2023/07/20 08:23:42;;;;;;;1.10;0.73;;;19.20;99.90;;;;;;5135713;28;20023;-76
2023/07/20 08:26:08;;;;;;;3.72;0.95;;;19.00;99.90;;;;;;5128804;28;20020;-76
2023/07/20 08:28:34;;;;;;;1.77;1.00;;;19.00;99.90;;;;;;5127469;28;20024;-76
2023/07/20 08:31:00;;;;;;;2.42;1.10;;;19.10;99.90;;;;;;5135215;28;20019;-75
2023/07/20 08:33:29;;;;;;;3.20;0.95;;;19.20;99.90;;;;;;5135544;28;20401;-74
2023/07/20 08:35:56;;;;;;;4.88;1.02;;;19.40;99.90;;;;;;5133729;28;20061;-75
2023/07/20 08:38:22;;;;;;;1.17;1.00;;;19.50;99.90;;;;;;5131498;28;20110;-75
2023/07/20 08:40:47;;;;;;;3.65;0.93;;;19.70;99.90;;;;;;5121384;28;20095;-75
2023/07/20 08:43:16;;;;;;;2.50;1.08;;;19.90;99.90;;;;;;5118971;28;20026;-75
2023/07/20 08:45:42;;;;;;;3.33;1.05;;;20.20;99.90;;;;;;5132620;28;20084;-75
2023/07/20 08:48:08;;;;;;;1.92;1.00;;;20.40;99.90;;;;;;5129433;28;20031;-74
2023/07/20 08:50:35;;;;;;;1.83;0.93;;;20.70;99.90;;;;;;5132671;28;20058;-74
2023/07/20 08:53:01;;;;;;;4.25;1.05;;;21.00;99.90;;;;;;5133735;27;20505;-74
2023/07/20 08:55:28;;;;;;;2.67;0.95;;;21.20;99.90;;;;;;5125313;27;20020;-74
2023/07/20 08:57:55;;;;;;;2.17;0.95;;;21.30;99.90;;;;;;5127910;27;20579;-74
2023/07/20 09:00:22;;;;;;;3.63;1.05;;;21.40;99.90;;;;;;5133537;27;20024;-74
2023/07/20 09:02:51;;;;;;;4.50;1.10;;;21.50;99.90;;;;;;5135962;27;20030;-74
2023/07/20 09:05:17;;;;;;;4.22;1.00;;;21.80;99.90;;;;;;5126036;27;20471;-74
2023/07/20 09:07:43;;;;;;;1.35;0.85;;;22.10;99.90;;;;;;5135815;27;20029;-74
2023/07/20 09:10:10;;;;;;;1.27;0.90;;;22.30;99.90;;;;;;5136087;27;20107;-74
2023/07/20 09:12:40;;;;;;;2.80;0.80;;;22.60;99.90;;;;;;5136360;27;20026;-74
2023/07/20 09:15:08;;;;;;;1.60;0.70;;;22.70;99.90;;;;;;5135871;27;20019;-74
2023/07/20 09:17:33;;;;;;;2.88;0.90;;;22.70;99.90;;;;;;5130314;27;20012;-75
2023/07/20 09:20:07;;;;;;;1.00;0.73;;;22.70;99.90;;;;;;5133817;27;20019;-74
2023/07/20 09:22:33;;;;;;;0.82;0.60;;;22.60;99.90;;;;;;5132097;27;20511;-74
2023/07/20 09:24:59;;;;;;;1.40;0.70;;;22.40;99.90;;;;;;5112376;27;20016;-74
2023/07/20 09:27:39;;;;;;;2.30;0.82;;;22.20;99.90;;;;;;5133368;27;20031;-75
2023/07/20 09:30:09;;;;;;;2.55;0.73;;;22.30;99.90;;;;;;5133822;27;20015;-75
2023/07/20 09:32:45;;;;;;;28.90;1.92;;;22.40;99.90;;;;;;5112860;27;20122;-75
2023/07/20 09:35:21;;;;;;;1.67;0.95;;;22.50;99.90;;;;;;5124960;27;20030;-75
2023/07/20 09:37:54;;;;;;;11.38;1.02;;;22.50;99.90;;;;;;5134841;27;20556;-76
2023/07/20 09:40:20;;;;;;;50.92;3.28;;;22.60;99.90;;;;;;5127717;27;20464;-77
2023/07/20 09:42:46;;;;;;;4.65;0.90;;;22.70;99.90;;;;;;5130344;27;20023;-78
2023/07/20 09:45:12;;;;;;;7.78;1.00;;;22.70;99.90;;;;;;5141422;27;20027;-76
2023/07/20 09:47:38;;;;;;;4.65;1.10;;;22.80;99.90;;;;;;5133723;27;20030;-76
2023/07/20 09:50:10;;;;;;;3.00;0.70;;;22.90;99.90;;;;;;5142182;27;20023;-77
2023/07/20 09:52:45;;;;;;;1.58;0.88;;;23.10;99.90;;;;;;5139379;27;20391;-76
2023/07/20 09:55:13;;;;;;;;;;;23.00;99.90;;;;;;5137585;27;20015;-77
2023/07/20 09:57:39;;;;;;;1.10;0.63;;;22.90;99.90;;;;;;5137821;27;19914;-75
2023/07/20 10:00:11;;;;;;;1.15;0.80;;;22.80;99.90;;;;;;5137724;27;20391;-75
2023/07/20 10:02:43;;;;;;;3.65;0.80;;;22.70;99.90;;;;;;5137549;27;20074;-75
2023/07/20 10:05:12;;;;;;;1.00;0.70;;;22.20;99.70;;;;;;5136660;27;20026;-77
2023/07/20 10:07:47;;;;;;;1.23;0.80;;;21.90;99.90;;;;;;5124975;27;20015;-76
2023/07/20 10:10:16;;;;;;;2.22;0.77;;;21.80;99.90;;;;;;5139355;27;20055;-75
2023/07/20 10:12:43;;;;;;;4.80;0.82;;;21.80;99.90;;;;;;5129246;27;20076;-75
2023/07/20 10:15:21;;;;;;;4.22;0.88;;;21.90;99.90;;;;;;5142986;27;20027;-76
2023/07/20 10:17:53;;;;;;;5.07;0.80;;;22.20;99.90;;;;;;5135593;27;20043;-76
2023/07/20 10:20:21;;;;;;;3.67;0.90;;;22.50;99.90;;;;;;5141423;27;20023;-76
2023/07/20 10:22:48;;;;;;;1.38;0.70;;;22.70;99.90;;;;;;5122706;28;20027;-76
2023/07/20 10:25:14;;;;;;;5.05;0.77;;;22.80;99.80;;;;;;5133053;27;20035;-75
2023/07/20 10:27:40;;;;;;;3.08;0.85;;;22.80;99.40;;;;;;5125237;27;20106;-76
2023/07/20 10:30:07;;;;;;;0.85;0.70;;;22.80;99.10;;;;;;5134030;27;20050;-75
2023/07/20 10:32:32;;;;;;;2.63;0.90;;;22.80;99.00;;;;;;5130017;27;20031;-76
2023/07/20 10:34:58;;;;;;;2.03;0.70;;;22.80;98.80;;;;;;5123658;27;20103;-76
2023/07/20 10:37:52;;;;;;;3.20;0.75;;;22.80;98.40;;;;;;5130259;27;20409;-76
2023/07/20 10:40:32;;;;;;;1.80;0.82;;;22.70;97.60;;;;;;5128927;27;20042;-77
2023/07/20 10:43:07;;;;;;;1.30;0.70;;;22.70;98.10;;;;;;5115597;27;20084;-76
2023/07/20 10:45:52;;;;;;;1.60;0.85;;;22.80;98.10;;;;;;5124825;27;20072;-75
2023/07/20 10:48:25;;;;;;;4.05;0.80;;;23.10;97.80;;;;;;5118795;27;20473;-76
2023/07/20 10:51:11;;;;;;;2.45;0.80;;;23.30;97.70;;;;;;5133680;27;20043;-74
2023/07/20 10:53:37;;;;;;;1.60;0.80;;;23.30;96.40;;;;;;5123102;27;20356;-77
2023/07/20 10:56:13;;;;;;;1.70;0.80;;;23.40;96.50;;;;;;5135714;27;20030;-76
2023/07/20 10:58:41;;;;;;;2.75;0.77;;;23.50;96.10;;;;;;5120980;27;20072;-75
2023/07/20 11:01:07;;;;;;;1.63;0.80;;;23.60;95.60;;;;;;5137393;27;20027;-76
2023/07/20 11:03:41;;;;;;;1.83;0.85;;;23.50;95.60;;;;;;5138715;27;20509;-79
2023/07/20 11:06:25;;;;;;;2.55;0.80;;;23.40;94.90;;;;;;5128616;27;20031;-75
2023/07/20 11:09:15;;;;;;;1.42;0.70;;;23.30;94.80;;;;;;5134024;27;20038;-76
2023/07/20 11:11:47;;;;;;;1.58;0.90;;;23.50;95.10;;;;;;5136514;27;20034;-77
2023/07/20 11:14:25;;;;;;;1.85;0.85;;;23.60;95.00;;;;;;5133019;27;20019;-77
2023/07/20 11:16:52;;;;;;;2.22;0.60;;;23.80;94.30;;;;;;5129064;27;20571;-77
2023/07/20 11:19:19;;;;;;;3.05;1.00;;;23.80;93.90;;;;;;5124204;27;20023;-77
2023/07/20 11:21:46;;;;;;;1.90;0.70;;;23.80;93.20;;;;;;5137620;27;20021;-76
2023/07/20 11:24:13;;;;;;;1.95;0.80;;;23.50;93.00;;;;;;5134095;27;20023;-76
2023/07/20 11:26:48;;;;;;;1.25;1.00;;;23.30;93.20;;;;;;5137029;27;20375;-76
2023/07/20 11:29:16;;;;;;;2.13;0.90;;;23.10;93.50;;;;;;5136763;27;20019;-75
2023/07/20 11:31:43;;;;;;;2.47;0.73;;;23.10;93.80;;;;;;5117140;27;20503;-75
2023/07/20 11:34:14;;;;;;;1.65;0.70;;;23.10;93.60;;;;;;5135331;27;20411;-74
2023/07/20 11:36:42;;;;;;;1.90;0.80;;;23.20;93.80;;;;;;5133214;27;20033;-74
2023/07/20 11:39:12;;;;;;;1.42;0.88;;;23.40;93.70;;;;;;5125361;27;20019;-74
2023/07/20 11:41:39;;;;;;;2.53;0.90;;;23.60;93.60;;;;;;5134175;27;20023;-74
2023/07/20 11:44:12;;;;;;;2.22;0.77;;;23.90;93.60;;;;;;5134713;27;20029;-75
2023/07/20 11:46:39;;;;;;;3.03;1.10;;;24.10;92.90;;;;;;5116298;27;20031;-74
2023/07/20 11:49:05;;;;;;;2.25;0.88;;;24.20;90.90;;;;;;5117475;27;20114;-75
2023/07/20 11:51:32;;;;;;;1.80;0.75;;;24.20;91.00;;;;;;5135166;27;20055;-74
2023/07/20 11:53:58;;;;;;;1.85;0.75;;;24.40;90.70;;;;;;5119872;27;20153;-73
2023/07/20 11:56:25;;;;;;;1.85;0.70;;;24.50;90.40;;;;;;5128852;28;20092;-74
2023/07/20 11:58:54;;;;;;;1.90;0.80;;;24.60;90.20;;;;;;5132641;28;20024;-75
2023/07/20 12:01:20;;;;;;;1.58;0.90;;;24.60;90.20;;;;;;5123841;28;20019;-75
2023/07/20 12:03:48;;;;;;;2.05;0.80;;;24.80;90.00;;;;;;5115020;28;20472;-75
2023/07/20 12:06:14;;;;;;;1.15;0.80;;;24.80;88.70;;;;;;5133547;28;20061;-75
2023/07/20 12:08:44;;;;;;;1.83;0.90;;;24.80;88.40;;;;;;5130035;28;20027;-75
2023/07/20 12:11:09;;;;;;;1.48;0.77;;;24.80;87.30;;;;;;5122342;28;20015;-74
2023/07/20 12:13:44;;;;;;;1.83;1.00;;;24.80;88.00;;;;;;5113444;28;20039;-73
2023/07/20 12:16:14;;;;;;;2.57;0.80;;;25.00;86.00;;;;;;5123117;28;20021;-74
2023/07/20 12:18:41;;;;;;;1.90;0.88;;;25.10;84.80;;;;;;5131076;28;20027;-75
2023/07/20 12:21:08;;;;;;;1.92;0.88;;;25.20;85.90;;;;;;5122591;28;20441;-76
2023/07/20 12:23:38;;;;;;;1.83;0.73;;;25.40;84.20;;;;;;5108940;28;20024;-75
2023/07/20 12:26:10;;;;;;;1.60;0.70;;;25.60;81.60;;;;;;5129311;27;20047;-76
2023/07/20 12:28:42;;;;;;;2.70;0.80;;;25.60;80.10;;;;;;5139389;27;20028;-75
2023/07/20 12:31:10;;;;;;;1.00;0.65;;;25.70;79.60;;;;;;5126334;27;20107;-75
2023/07/20 12:33:39;;;;;;;0.73;0.60;;;25.70;79.30;;;;;;5129503;27;20026;-75
2023/07/20 12:36:05;;;;;;;0.70;0.70;;;25.70;78.90;;;;;;5128343;27;20027;-74
2023/07/20 12:38:31;;;;;;;2.35;0.93;;;25.60;78.70;;;;;;5137086;27;20036;-73
2023/07/20 12:40:58;;;;;;;3.20;1.00;;;25.50;78.40;;;;;;5117229;27;20491;-75
2023/07/20 12:43:24;;;;;;;1.33;0.70;;;25.40;78.20;;;;;;5136096;27;20019;-74
2023/07/20 12:45:49;;;;;;;0.95;0.60;;;25.30;77.30;;;;;;5126223;27;20626;-75
2023/07/20 12:48:15;;;;;;;3.80;0.95;;;25.30;76.90;;;;;;5139565;27;20511;-74
2023/07/20 12:50:41;;;;;;;1.13;0.70;;;25.40;76.50;;;;;;5147091;27;20074;-72